Time;durP1;ratioP1;P1;durP2;ratioP2;P2;SDS_P1;SDS_P2;PMS_P1;PMS_P2;Temp;Humidity;BMP_temperature;BMP_pressure;BME280_temperature;BME280_humidity;BME280_pressure;Samples;Min_cycle;Max_cycle;Signal;HPM_P1;HPM_P2
2021/07/01 00:01:45;;;;;;;20.30;14.87;;;17.20;99.90;;;;;;5053561;28;20484;-76
2021/07/01 00:04:12;;;;;;;20.23;14.43;;;17.40;99.90;;;;;;5053380;28;20500;-75
2021/07/01 00:06:40;;;;;;;19.83;12.47;;;17.20;99.90;;;;;;5053499;28;20533;-75
2021/07/01 00:09:13;;;;;;;16.20;12.10;;;17.20;99.90;;;;;;5053398;28;20541;-75
2021/07/01 00:11:40;;;;;;;17.63;13.03;;;17.20;99.90;;;;;;5053438;28;20479;-76
2021/07/01 00:14:07;;;;;;;14.77;12.80;;;17.50;99.90;;;;;;5053262;28;20450;-76
2021/07/01 00:16:33;;;;;;;14.57;11.70;;;17.20;99.90;;;;;;5053248;28;20513;-77
2021/07/01 00:19:00;;;;;;;13.73;11.57;;;17.20;99.90;;;;;;5053293;28;20442;-75
2021/07/01 00:21:27;;;;;;;15.43;11.80;;;17.20;99.90;;;;;;5053467;28;20481;-75
2021/07/01 00:23:54;;;;;;;15.47;11.50;;;17.20;99.90;;;;;;5053201;28;20469;-76
2021/07/01 00:26:21;;;;;;;12.97;11.47;;;17.20;99.90;;;;;;5053275;28;20446;-75
2021/07/01 00:28:48;;;;;;;14.73;10.60;;;17.20;99.90;;;;;;5053184;28;20441;-75
2021/07/01 00:31:14;;;;;;;14.60;10.60;;;17.20;99.90;;;;;;5053658;28;20469;-76
2021/07/01 00:33:41;;;;;;;17.77;12.17;;;17.20;99.90;;;;;;5052982;28;20450;-75
2021/07/01 00:36:08;;;;;;;16.60;11.07;;;17.20;99.90;;;;;;5053162;28;20921;-75
2021/07/01 00:38:34;;;;;;;14.67;11.60;;;17.20;99.90;;;;;;5052686;28;20446;-75
2021/07/01 00:41:02;;;;;;;14.03;11.27;;;17.20;99.90;;;;;;5053003;28;20907;-75
2021/07/01 00:43:29;;;;;;;17.63;12.90;;;17.20;99.90;;;;;;5053020;28;20453;-77
2021/07/01 00:45:55;;;;;;;13.93;12.20;;;17.20;99.90;;;;;;5052977;28;20498;-75
2021/07/01 00:48:22;;;;;;;15.77;11.03;;;17.20;99.90;;;;;;5052952;28;20481;-75
2021/07/01 00:50:51;;;;;;;21.07;13.07;;;17.20;99.90;;;;;;5053142;28;20480;-75
2021/07/01 00:53:17;;;;;;;17.37;12.60;;;17.20;99.90;;;;;;5052907;28;20441;-75
2021/07/01 00:55:44;;;;;;;18.07;13.23;;;17.20;99.90;;;;;;5052402;28;20521;-76
2021/07/01 00:58:12;;;;;;;17.93;13.07;;;17.10;99.90;;;;;;5052983;28;20476;-75
2021/07/01 01:00:50;;;;;;;17.07;12.80;;;17.10;99.90;;;;;;5053105;28;20453;-75
2021/07/01 01:03:18;;;;;;;18.23;12.20;;;17.10;99.90;;;;;;5053596;28;20444;-75
2021/07/01 01:05:45;;;;;;;18.87;13.30;;;17.10;99.90;;;;;;5052787;28;20825;-75
2021/07/01 01:08:12;;;;;;;22.77;14.03;;;17.10;99.90;;;;;;5052726;28;20449;-75
2021/07/01 01:10:39;;;;;;;20.33;12.70;;;17.00;99.90;;;;;;5053830;28;20842;-75
2021/07/01 01:13:06;;;;;;;16.23;11.87;;;17.00;99.90;;;;;;5052816;28;20458;-75
2021/07/01 01:15:34;;;;;;;19.77;14.60;;;17.10;99.90;;;;;;5052193;28;20489;-75
2021/07/01 01:18:00;;;;;;;21.30;14.10;;;17.00;99.90;;;;;;5052821;28;20801;-75
2021/07/01 01:20:27;;;;;;;20.67;13.07;;;17.10;99.90;;;;;;5052647;28;20858;-76
2021/07/01 01:22:55;;;;;;;18.07;14.13;;;17.00;99.90;;;;;;5052662;28;20463;-75
2021/07/01 01:25:21;;;;;;;22.10;15.03;;;17.10;99.90;;;;;;5052421;28;20465;-76
2021/07/01 01:27:48;;;;;;;25.30;15.37;;;17.00;99.90;;;;;;5052562;28;20453;-75
2021/07/01 01:30:16;;;;;;;20.73;15.30;;;17.00;99.90;;;;;;5053567;28;20453;-76
2021/07/01 01:32:43;;;;;;;23.27;14.93;;;17.10;99.90;;;;;;5056475;28;20868;-75
2021/07/01 01:35:10;;;;;;;19.53;15.37;;;17.10;99.90;;;;;;5056167;28;20880;-75
2021/07/01 01:37:36;;;;;;;16.20;12.73;;;17.10;99.90;;;;;;5056207;28;20481;-75
2021/07/01 01:40:06;;;;;;;15.13;12.13;;;17.10;99.90;;;;;;5056200;28;20476;-75
2021/07/01 01:42:32;;;;;;;15.37;11.40;;;17.00;99.90;;;;;;5056029;28;20523;-75
2021/07/01 01:44:59;;;;;;;15.73;12.07;;;17.00;99.90;;;;;;5056006;28;20495;-75
2021/07/01 01:47:25;;;;;;;14.07;11.40;;;17.00;99.90;;;;;;5056185;28;20813;-76
2021/07/01 01:49:52;;;;;;;13.93;11.37;;;17.00;99.90;;;;;;5055698;28;20932;-76
2021/07/01 01:52:19;;;;;;;24.60;11.17;;;16.90;99.90;;;;;;5055647;28;20947;-75
2021/07/01 01:54:45;;;;;;;18.30;10.63;;;16.90;99.90;;;;;;5055804;28;20900;-76
2021/07/01 01:57:13;;;;;;;11.73;10.37;;;16.90;99.90;;;;;;5056067;28;20465;-75
2021/07/01 01:59:40;;;;;;;16.43;9.50;;;16.90;99.90;;;;;;5055592;28;20481;-76
2021/07/01 02:02:06;;;;;;;11.93;9.43;;;17.00;99.90;;;;;;5055827;28;20449;-76
2021/07/01 02:04:33;;;;;;;11.93;9.20;;;17.00;99.90;;;;;;5055376;28;20485;-75
2021/07/01 02:07:00;;;;;;;12.40;9.97;;;17.00;99.90;;;;;;5055606;28;20480;-76
2021/07/01 02:09:26;;;;;;;10.73;9.50;;;17.00;99.90;;;;;;5055604;28;20503;-76
2021/07/01 02:11:53;;;;;;;12.00;9.60;;;17.00;99.90;;;;;;5055720;28;20449;-76
2021/07/01 02:14:21;;;;;;;15.20;9.90;;;16.90;99.90;;;;;;5055687;28;20527;-77
2021/07/01 02:16:47;;;;;;;13.20;9.80;;;17.00;99.90;;;;;;5055257;28;20535;-76
2021/07/01 02:19:14;;;;;;;8.63;7.57;;;17.10;99.90;;;;;;5055258;28;20974;-76
2021/07/01 02:21:41;;;;;;;10.80;9.13;;;17.00;99.90;;;;;;5056034;28;20446;-76
2021/07/01 02:24:07;;;;;;;12.77;9.00;;;16.80;99.90;;;;;;5055338;28;20449;-76
2021/07/01 02:26:34;;;;;;;8.33;7.10;;;16.90;99.90;;;;;;5055412;28;20473;-77
2021/07/01 02:29:01;;;;;;;10.20;8.67;;;17.00;99.90;;;;;;5055396;28;20484;-77
2021/07/01 02:31:28;;;;;;;8.80;6.53;;;17.00;99.90;;;;;;5055314;28;20496;-76
2021/07/01 02:33:55;;;;;;;8.90;7.40;;;17.00;99.90;;;;;;5054879;28;21014;-75
2021/07/01 02:36:22;;;;;;;8.40;7.47;;;17.00;99.90;;;;;;5055722;28;21042;-76
2021/07/01 02:38:48;;;;;;;8.80;7.67;;;17.10;99.90;;;;;;5055187;28;20498;-77
2021/07/01 02:41:15;;;;;;;10.13;8.67;;;17.00;99.90;;;;;;5054970;28;20873;-76
2021/07/01 02:43:41;;;;;;;9.57;8.00;;;17.00;99.90;;;;;;5054988;28;20507;-77
2021/07/01 02:46:08;;;;;;;12.53;8.43;;;17.00;99.90;;;;;;5054862;28;20978;-76
2021/07/01 02:48:36;;;;;;;10.60;7.73;;;17.00;99.90;;;;;;5054951;28;20484;-77
2021/07/01 02:51:02;;;;;;;9.87;8.17;;;17.00;99.90;;;;;;5054547;28;20453;-77
2021/07/01 02:53:30;;;;;;;10.73;8.40;;;17.00;99.90;;;;;;5054962;28;20482;-76
2021/07/01 02:55:56;;;;;;;12.73;10.03;;;17.10;99.90;;;;;;5068445;22;20489;-76
2021/07/01 02:58:23;;;;;;;25.97;18.97;;;17.10;99.90;;;;;;5055153;28;20454;-76
2021/07/01 03:00:49;;;;;;;13.60;10.50;;;17.20;99.90;;;;;;5054656;28;20477;-76
2021/07/01 03:03:16;;;;;;;24.40;17.53;;;17.20;99.90;;;;;;5054471;28;20449;-76
2021/07/01 03:05:44;;;;;;;10.83;7.27;;;17.20;99.90;;;;;;5054643;28;20466;-76
2021/07/01 03:08:10;;;;;;;9.77;6.07;;;17.10;99.90;;;;;;5054534;28;20461;-76
2021/07/01 03:10:37;;;;;;;6.50;5.37;;;17.00;99.90;;;;;;5053898;28;20450;-76
2021/07/01 03:13:03;;;;;;;18.03;6.23;;;17.10;99.90;;;;;;5054055;28;20477;-76
2021/07/01 03:15:30;;;;;;;4.83;3.93;;;17.10;99.90;;;;;;5053917;28;20497;-76
2021/07/01 03:17:57;;;;;;;5.53;4.60;;;17.00;99.90;;;;;;5053795;28;20539;-77
2021/07/01 03:20:23;;;;;;;32.60;24.03;;;17.00;99.90;;;;;;5053814;28;20809;-77
2021/07/01 03:22:51;;;;;;;31.23;21.20;;;17.00;99.90;;;;;;5053647;28;20945;-76
2021/07/01 03:25:18;;;;;;;12.13;10.03;;;16.90;99.90;;;;;;5059780;28;21006;-76
2021/07/01 03:27:44;;;;;;;4.73;4.33;;;16.90;99.90;;;;;;5057650;28;20448;-77
2021/07/01 03:30:12;;;;;;;12.03;9.73;;;16.90;99.90;;;;;;5053731;28;20576;-77
2021/07/01 03:32:39;;;;;;;23.73;18.30;;;17.00;99.90;;;;;;5053683;28;20546;-77
2021/07/01 03:35:06;;;;;;;5.00;3.60;;;16.90;99.90;;;;;;5053890;28;20470;-77
2021/07/01 03:37:33;;;;;;;7.73;6.33;;;16.90;99.90;;;;;;5053309;28;20516;-77
2021/07/01 03:40:01;;;;;;;12.93;9.50;;;16.90;99.90;;;;;;5053594;28;20521;-77
2021/07/01 03:42:28;;;;;;;4.67;2.73;;;16.80;99.90;;;;;;5054173;28;20441;-77
2021/07/01 03:44:55;;;;;;;6.70;4.50;;;16.80;99.90;;;;;;5053363;28;20830;-77
2021/07/01 03:47:22;;;;;;;5.57;4.00;;;16.70;99.90;;;;;;5053865;28;20548;-77
2021/07/01 03:49:48;;;;;;;6.73;4.63;;;16.50;99.90;;;;;;5053398;28;20499;-77
2021/07/01 03:52:15;;;;;;;4.13;3.27;;;16.40;99.90;;;;;;5053229;28;20500;-77
2021/07/01 03:54:41;;;;;;;6.23;4.90;;;16.00;99.90;;;;;;5052654;28;20496;-77
2021/07/01 03:57:09;;;;;;;14.70;10.87;;;16.20;99.90;;;;;;5053029;28;20505;-77
2021/07/01 03:59:36;;;;;;;14.17;10.13;;;16.20;99.90;;;;;;5053099;28;20484;-77
2021/07/01 04:02:03;;;;;;;6.73;5.13;;;16.10;99.90;;;;;;5053114;28;20796;-77
2021/07/01 04:04:30;;;;;;;4.40;3.80;;;16.10;99.90;;;;;;5053000;28;20453;-77
2021/07/01 04:06:56;;;;;;;5.50;2.63;;;16.10;99.90;;;;;;5052983;28;20473;-77
2021/07/01 04:09:23;;;;;;;23.93;13.10;;;16.00;99.90;;;;;;5052959;28;20481;-77
2021/07/01 04:11:50;;;;;;;7.67;5.60;;;16.10;99.90;;;;;;5052769;28;20477;-77
2021/07/01 04:14:18;;;;;;;5.13;4.40;;;16.00;99.90;;;;;;5053247;28;20552;-77
2021/07/01 04:16:46;;;;;;;18.63;11.33;;;15.90;99.90;;;;;;5052914;28;20578;-76
2021/07/01 04:19:13;;;;;;;3.20;2.90;;;16.00;99.90;;;;;;5052673;28;20449;-77
2021/07/01 04:21:39;;;;;;;3.27;2.27;;;16.00;99.90;;;;;;5052837;28;20477;-77
2021/07/01 04:24:06;;;;;;;7.60;3.10;;;16.00;99.90;;;;;;5052854;28;20449;-77
2021/07/01 04:26:33;;;;;;;3.90;2.97;;;15.90;99.90;;;;;;5052593;28;20504;-77
2021/07/01 04:29:00;;;;;;;4.70;2.90;;;15.90;99.90;;;;;;5052566;28;20453;-77
2021/07/01 04:31:28;;;;;;;2.93;2.37;;;15.80;99.90;;;;;;5052749;28;20484;-76
2021/07/01 04:33:54;;;;;;;3.43;2.33;;;15.80;99.90;;;;;;5052766;28;20484;-76
2021/07/01 04:36:21;;;;;;;2.30;2.10;;;15.80;99.90;;;;;;5053331;28;20513;-77
2021/07/01 04:38:48;;;;;;;2.43;2.23;;;15.80;99.90;;;;;;5052658;28;20441;-77
2021/07/01 04:41:19;;;;;;;2.57;1.90;;;15.80;99.90;;;;;;5052766;28;20469;-77
2021/07/01 04:43:45;;;;;;;2.50;2.07;;;15.70;99.90;;;;;;5052905;28;20434;-78
2021/07/01 04:46:12;;;;;;;2.17;2.00;;;15.70;99.90;;;;;;5052372;28;20941;-77
2021/07/01 04:48:40;;;;;;;2.23;2.03;;;15.70;99.90;;;;;;5052703;28;20541;-77
2021/07/01 04:51:06;;;;;;;4.80;1.63;;;15.70;99.90;;;;;;5052577;28;20488;-76
2021/07/01 04:53:33;;;;;;;1.63;1.53;;;15.70;99.90;;;;;;5052654;28;20449;-76
2021/07/01 04:56:00;;;;;;;1.37;1.27;;;15.70;99.90;;;;;;5052177;28;20505;-76
2021/07/01 04:58:26;;;;;;;1.50;1.20;;;15.60;99.90;;;;;;5052415;28;20512;-77
2021/07/01 05:00:53;;;;;;;1.73;1.63;;;15.60;99.90;;;;;;5052034;28;20503;-76
2021/07/01 05:03:20;;;;;;;1.50;1.40;;;15.60;99.90;;;;;;5052304;28;20757;-77
2021/07/01 05:05:47;;;;;;;1.70;1.60;;;15.60;99.90;;;;;;5054157;28;20563;-77
2021/07/01 05:08:15;;;;;;;4.10;1.57;;;15.60;99.90;;;;;;5058061;28;20449;-76
2021/07/01 05:10:42;;;;;;;2.23;1.13;;;15.50;99.90;;;;;;5058483;28;20460;-76
2021/07/01 05:13:09;;;;;;;2.10;1.90;;;15.60;99.90;;;;;;5056307;28;20820;-77
2021/07/01 05:15:35;;;;;;;1.70;1.60;;;15.50;99.90;;;;;;5055921;28;20501;-78
2021/07/01 05:18:02;;;;;;;1.63;1.43;;;15.50;99.90;;;;;;5056373;28;20552;-76
2021/07/01 05:20:29;;;;;;;1.67;1.57;;;15.50;99.90;;;;;;5056067;28;20557;-77
2021/07/01 05:22:57;;;;;;;1.80;1.70;;;15.50;99.90;;;;;;5055829;28;20483;-77
2021/07/01 05:25:24;;;;;;;2.40;2.20;;;15.50;99.90;;;;;;5055825;28;20519;-76
2021/07/01 05:27:50;;;;;;;2.30;1.77;;;15.40;99.90;;;;;;5055760;28;20445;-76
2021/07/01 05:30:17;;;;;;;1.97;1.87;;;15.30;99.90;;;;;;5055701;28;20507;-77
2021/07/01 05:32:44;;;;;;;2.60;1.60;;;15.30;99.90;;;;;;5055479;28;20927;-77
2021/07/01 05:35:11;;;;;;;2.40;2.30;;;15.30;99.90;;;;;;5055673;28;20560;-77
2021/07/01 05:37:37;;;;;;;2.20;2.00;;;15.30;99.90;;;;;;5055691;28;20524;-76
2021/07/01 05:40:07;;;;;;;1.90;1.80;;;15.10;99.90;;;;;;5055657;28;20477;-76
2021/07/01 05:42:33;;;;;;;1.87;1.77;;;15.10;99.90;;;;;;5055513;28;20457;-76
2021/07/01 05:45:00;;;;;;;2.43;2.03;;;15.10;99.90;;;;;;5055144;28;20469;-77
2021/07/01 05:47:26;;;;;;;2.43;2.23;;;15.00;99.90;;;;;;5055517;28;20484;-77
2021/07/01 05:49:53;;;;;;;1.53;1.43;;;15.00;99.90;;;;;;5055502;28;20477;-76
2021/07/01 05:52:23;;;;;;;2.60;2.40;;;14.90;99.90;;;;;;5055486;28;20457;-77
2021/07/01 05:54:57;;;;;;;2.20;2.10;;;14.90;99.90;;;;;;5055298;28;20488;-76
2021/07/01 05:57:27;;;;;;;4.90;1.80;;;14.90;99.90;;;;;;5055722;28;20472;-76
2021/07/01 05:59:54;;;;;;;1.83;1.73;;;14.80;99.90;;;;;;5054979;28;20873;-77
2021/07/01 06:02:21;;;;;;;2.10;1.90;;;14.80;99.90;;;;;;5055316;28;20492;-76
2021/07/01 06:04:48;;;;;;;1.97;1.70;;;14.80;99.90;;;;;;5055097;28;20901;-77
2021/07/01 06:07:20;;;;;;;2.23;1.23;;;14.80;99.90;;;;;;5055093;28;20761;-76
2021/07/01 06:09:49;;;;;;;4.83;1.90;;;14.70;99.90;;;;;;5055436;28;20488;-75
2021/07/01 06:12:17;;;;;;;1.87;1.77;;;14.80;99.90;;;;;;5055106;28;20876;-76
2021/07/01 06:14:45;;;;;;;2.00;1.90;;;14.80;99.90;;;;;;5055451;28;20495;-76
2021/07/01 06:17:13;;;;;;;2.30;1.70;;;14.70;99.90;;;;;;5055251;28;20537;-77
2021/07/01 06:19:40;;;;;;;2.27;1.67;;;14.80;99.90;;;;;;5054997;28;20445;-76
2021/07/01 06:22:07;;;;;;;2.40;2.00;;;14.70;99.90;;;;;;5055290;28;20783;-76
2021/07/01 06:24:35;;;;;;;2.07;1.87;;;15.20;99.90;;;;;;5055488;28;20526;-76
2021/07/01 06:27:02;;;;;;;2.60;2.17;;;14.80;99.90;;;;;;5054692;28;20932;-75
2021/07/01 06:29:29;;;;;;;3.60;2.40;;;14.70;99.90;;;;;;5054505;28;20445;-75
2021/07/01 06:31:57;;;;;;;2.40;2.20;;;14.80;99.90;;;;;;5054811;28;20477;-76
2021/07/01 06:34:23;;;;;;;3.77;3.27;;;14.90;99.90;;;;;;5054741;28;20442;-75
2021/07/01 06:36:55;;;;;;;2.80;2.57;;;14.70;99.90;;;;;;5055074;28;20472;-75
2021/07/01 06:39:23;;;;;;;3.20;1.97;;;14.70;99.90;;;;;;5055237;28;20429;-75
2021/07/01 06:41:53;;;;;;;2.53;2.33;;;14.70;99.90;;;;;;5054759;28;20964;-76
2021/07/01 06:44:21;;;;;;;2.50;2.30;;;14.70;99.90;;;;;;5054687;28;20446;-74
2021/07/01 06:46:49;;;;;;;3.50;2.27;;;14.70;99.90;;;;;;5054717;28;20507;-75
2021/07/01 06:49:17;;;;;;;2.70;2.30;;;14.80;99.90;;;;;;5055315;28;20971;-76
2021/07/01 06:51:45;;;;;;;2.60;2.40;;;14.70;99.90;;;;;;5055531;28;20468;-75
2021/07/01 06:54:14;;;;;;;3.40;2.37;;;14.60;99.90;;;;;;5054535;28;20445;-74
2021/07/01 06:56:41;;;;;;;4.17;2.00;;;14.60;99.90;;;;;;5054543;28;20999;-74
2021/07/01 06:59:12;;;;;;;2.43;1.83;;;14.60;99.90;;;;;;5055003;28;20545;-76
2021/07/01 07:01:40;;;;;;;2.43;1.83;;;14.60;99.90;;;;;;5056599;28;20855;-75
2021/07/01 07:04:07;;;;;;;3.27;2.60;;;14.60;99.90;;;;;;5056252;28;20791;-76
2021/07/01 07:06:36;;;;;;;2.10;2.00;;;14.60;99.90;;;;;;5055984;28;20465;-76
2021/07/01 07:09:04;;;;;;;2.07;1.83;;;14.60;99.90;;;;;;5054821;28;20446;-76
2021/07/01 07:11:33;;;;;;;3.10;2.17;;;14.60;99.90;;;;;;5054567;28;20484;-76
2021/07/01 07:14:00;;;;;;;2.37;2.17;;;14.50;99.90;;;;;;5054275;28;20865;-76
2021/07/01 07:16:27;;;;;;;3.60;3.30;;;14.50;99.90;;;;;;5054267;28;20493;-76
2021/07/01 07:18:56;;;;;;;2.57;2.37;;;14.50;99.90;;;;;;5054505;28;20485;-76
2021/07/01 07:21:23;;;;;;;3.90;2.80;;;14.60;99.90;;;;;;5054571;28;20484;-76
2021/07/01 07:23:54;;;;;;;2.50;2.30;;;14.60;99.90;;;;;;5056169;28;20488;-76
2021/07/01 07:26:23;;;;;;;3.27;2.83;;;14.60;99.90;;;;;;5056024;28;20527;-76
2021/07/01 07:28:51;;;;;;;3.83;3.53;;;14.60;99.90;;;;;;5053506;28;20855;-76
2021/07/01 07:31:23;;;;;;;3.23;3.03;;;14.60;99.90;;;;;;5053935;28;20499;-76
2021/07/01 07:33:53;;;;;;;2.97;2.77;;;14.60;99.90;;;;;;5055450;28;20430;-76
2021/07/01 07:36:21;;;;;;;4.80;4.10;;;14.70;99.90;;;;;;5055110;28;20465;-76
2021/07/01 07:38:49;;;;;;;3.77;2.70;;;14.70;99.90;;;;;;5054948;28;20531;-76
2021/07/01 07:41:17;;;;;;;3.87;2.80;;;14.70;99.90;;;;;;5054709;28;20454;-76
2021/07/01 07:43:45;;;;;;;5.23;3.97;;;14.70;99.90;;;;;;5054105;28;20873;-75
2021/07/01 07:46:12;;;;;;;12.07;7.83;;;14.70;99.90;;;;;;5054440;28;20465;-76
2021/07/01 07:48:40;;;;;;;5.43;4.93;;;14.70;99.90;;;;;;5053829;28;20442;-76
2021/07/01 07:51:07;;;;;;;5.00;4.60;;;14.70;99.90;;;;;;5053850;28;20499;-76
2021/07/01 07:53:36;;;;;;;3.77;3.40;;;14.70;99.90;;;;;;5053285;28;20519;-75
2021/07/01 07:56:04;;;;;;;4.40;3.60;;;14.70;99.90;;;;;;5053162;28;20511;-75
2021/07/01 07:58:35;;;;;;;3.73;3.00;;;14.80;99.90;;;;;;5053607;28;20965;-75
2021/07/01 08:01:02;;;;;;;3.50;3.17;;;14.80;99.90;;;;;;5053413;28;20434;-75
2021/07/01 08:03:32;;;;;;;3.10;2.80;;;14.80;99.90;;;;;;5053397;28;20445;-75
2021/07/01 08:06:01;;;;;;;4.30;2.60;;;14.80;99.90;;;;;;5053324;28;20473;-75
2021/07/01 08:08:30;;;;;;;3.50;3.00;;;14.70;99.90;;;;;;5053081;28;20812;-77
2021/07/01 08:10:58;;;;;;;2.70;2.10;;;14.60;99.90;;;;;;5052944;28;20983;-75
2021/07/01 08:13:26;;;;;;;2.40;2.20;;;14.70;99.90;;;;;;5053011;28;20485;-75
2021/07/01 08:15:54;;;;;;;2.43;2.23;;;14.70;99.90;;;;;;5052886;28;20476;-75
2021/07/01 08:18:25;;;;;;;5.47;2.40;;;14.80;99.90;;;;;;5053454;28;20538;-75
2021/07/01 08:20:51;;;;;;;2.17;2.03;;;14.80;99.90;;;;;;5053679;28;20426;-74
2021/07/01 08:23:20;;;;;;;2.23;2.10;;;14.80;99.90;;;;;;5052683;28;20496;-74
2021/07/01 08:25:47;;;;;;;2.30;2.20;;;14.70;99.90;;;;;;5053262;28;20560;-75
2021/07/01 08:28:19;;;;;;;1.80;1.70;;;14.60;99.90;;;;;;5052734;28;20438;-75
2021/07/01 08:30:46;;;;;;;2.37;2.20;;;14.60;99.90;;;;;;5052673;28;20440;-75
2021/07/01 08:33:18;;;;;;;3.03;2.23;;;14.60;99.90;;;;;;5052692;28;20450;-76
2021/07/01 08:35:44;;;;;;;2.40;2.07;;;14.60;99.90;;;;;;5052782;28;20493;-75
2021/07/01 08:38:11;;;;;;;3.30;3.00;;;14.70;99.90;;;;;;5052808;28;20481;-76
2021/07/01 08:40:39;;;;;;;3.93;3.47;;;14.70;99.90;;;;;;5058895;28;20449;-76
2021/07/01 08:43:08;;;;;;;3.80;3.50;;;14.70;99.90;;;;;;5059659;28;20607;-76
2021/07/01 08:45:43;;;;;;;3.40;3.10;;;14.80;99.90;;;;;;5059243;28;20469;-76
2021/07/01 08:48:22;;;;;;;2.90;2.30;;;14.80;99.90;;;;;;5059978;28;20457;-76
2021/07/01 08:50:54;;;;;;;3.23;2.93;;;14.80;99.90;;;;;;5059906;28;20456;-77
2021/07/01 08:53:38;;;;;;;13.50;10.80;;;14.80;99.90;;;;;;5059301;28;20436;-74
2021/07/01 08:56:08;;;;;;;2.83;2.60;;;14.80;99.90;;;;;;5073778;22;21053;-78
2021/07/01 08:58:39;;;;;;;3.60;3.30;;;14.80;99.90;;;;;;5060890;28;20568;-79
2021/07/01 09:01:06;;;;;;;4.50;3.97;;;14.80;99.90;;;;;;5068653;28;20437;-78
2021/07/01 09:03:36;;;;;;;3.43;3.13;;;14.90;99.90;;;;;;5060927;28;20453;-78
2021/07/01 09:06:04;;;;;;;3.43;3.13;;;14.90;99.90;;;;;;5067349;28;20469;-78
2021/07/01 09:08:34;;;;;;;2.80;2.60;;;14.90;99.90;;;;;;5076632;28;20444;-78
2021/07/01 09:11:03;;;;;;;3.00;2.80;;;14.80;99.90;;;;;;5068627;28;20457;-78
2021/07/01 09:13:32;;;;;;;5.03;2.73;;;14.80;99.90;;;;;;5075833;28;20530;-78
2021/07/01 09:15:59;;;;;;;2.40;2.20;;;14.80;99.90;;;;;;5077790;28;20461;-77
2021/07/01 09:18:27;;;;;;;3.27;2.50;;;14.70;99.90;;;;;;5065500;28;20503;-78
2021/07/01 09:20:56;;;;;;;3.13;2.90;;;14.70;99.90;;;;;;5067316;28;20445;-78
2021/07/01 09:23:29;;;;;;;3.20;2.40;;;14.70;99.90;;;;;;5064498;28;20457;-79
2021/07/01 09:26:00;;;;;;;5.30;3.57;;;14.60;99.90;;;;;;5072863;28;20465;-78
2021/07/01 09:28:28;;;;;;;3.20;3.00;;;14.70;99.90;;;;;;5064585;28;20802;-78
2021/07/01 09:30:55;;;;;;;3.70;3.40;;;14.60;99.90;;;;;;5063276;28;20453;-78
2021/07/01 09:33:23;;;;;;;4.17;3.77;;;14.60;99.90;;;;;;5062794;28;20453;-78
2021/07/01 09:35:52;;;;;;;4.10;3.70;;;14.60;99.90;;;;;;5064437;28;20994;-79
2021/07/01 09:38:21;;;;;;;4.37;4.00;;;14.70;99.90;;;;;;5062093;28;20995;-80
2021/07/01 09:40:49;;;;;;;5.20;3.67;;;14.70;99.90;;;;;;5062033;28;20480;-77
2021/07/01 09:43:17;;;;;;;4.90;4.40;;;14.70;99.90;;;;;;5061100;28;20502;-79
2021/07/01 09:45:50;;;;;;;4.90;4.50;;;14.80;99.90;;;;;;5061208;28;20469;-78
2021/07/01 09:48:19;;;;;;;4.63;4.23;;;14.80;99.90;;;;;;5062689;28;20784;-78
2021/07/01 09:50:48;;;;;;;4.03;3.57;;;14.90;99.90;;;;;;5061265;28;20510;-78
2021/07/01 09:53:24;;;;;;;4.03;3.70;;;14.90;99.90;;;;;;5062716;28;20444;-77
2021/07/01 09:55:53;;;;;;;5.07;4.60;;;14.70;99.90;;;;;;5075918;28;20522;-77
2021/07/01 09:58:21;;;;;;;4.47;4.17;;;14.70;99.90;;;;;;5070162;28;20484;-79
2021/07/01 10:00:49;;;;;;;5.03;4.60;;;14.70;99.90;;;;;;5061844;28;20453;-78
2021/07/01 10:03:16;;;;;;;13.30;10.87;;;14.70;99.90;;;;;;5059948;28;20434;-78
2021/07/01 10:05:42;;;;;;;5.17;4.77;;;14.70;99.90;;;;;;5066579;28;20477;-78
2021/07/01 10:08:09;;;;;;;23.80;18.73;;;14.70;99.90;;;;;;5060847;28;20441;-78
2021/07/01 10:10:47;;;;;;;6.00;5.50;;;14.70;99.90;;;;;;5060195;28;20441;-78
2021/07/01 10:13:15;;;;;;;5.17;4.77;;;14.60;99.90;;;;;;5074085;28;20452;-77
2021/07/01 10:15:43;;;;;;;5.63;5.10;;;14.60;99.90;;;;;;5071762;28;20522;-77
2021/07/01 10:18:11;;;;;;;5.40;4.97;;;14.60;99.90;;;;;;5073727;28;20488;-77
2021/07/01 10:20:39;;;;;;;6.40;5.90;;;14.70;99.90;;;;;;5075326;28;20453;-77
2021/07/01 10:23:19;;;;;;;6.60;6.10;;;14.70;99.90;;;;;;5071468;28;20454;-77
2021/07/01 10:25:47;;;;;;;6.47;5.87;;;14.70;99.90;;;;;;5067641;28;20473;-77
2021/07/01 10:28:17;;;;;;;8.23;7.37;;;14.70;99.90;;;;;;5066501;28;20874;-78
2021/07/01 10:30:55;;;;;;;7.10;6.50;;;14.70;99.90;;;;;;5062590;28;20484;-78
2021/07/01 10:33:23;;;;;;;8.67;7.33;;;14.70;99.90;;;;;;5059684;28;20908;-78
2021/07/01 10:35:51;;;;;;;8.20;6.80;;;14.70;99.90;;;;;;5059353;28;20465;-78
2021/07/01 10:38:18;;;;;;;6.80;6.20;;;14.60;99.90;;;;;;5059102;28;20487;-77
2021/07/01 10:40:46;;;;;;;7.40;6.63;;;14.60;99.90;;;;;;5059507;28;20479;-78
2021/07/01 10:43:17;;;;;;;7.80;7.10;;;14.60;99.90;;;;;;5063400;28;20464;-78
2021/07/01 10:45:55;;;;;;;6.70;6.10;;;14.60;99.90;;;;;;5057959;28;20846;-78
2021/07/01 10:48:22;;;;;;;8.97;8.07;;;14.80;99.90;;;;;;5058271;28;20445;-78
2021/07/01 10:50:50;;;;;;;9.30;8.27;;;14.60;99.90;;;;;;5057854;28;20453;-78
2021/07/01 10:53:32;;;;;;;9.60;8.70;;;14.70;99.90;;;;;;5056968;28;20499;-77
2021/07/01 10:56:03;;;;;;;9.70;8.80;;;14.70;99.90;;;;;;5055087;28;20481;-77
2021/07/01 10:58:32;;;;;;;8.33;7.50;;;14.80;99.90;;;;;;5055016;28;20523;-77
2021/07/01 11:01:00;;;;;;;11.30;7.90;;;14.80;99.90;;;;;;5077120;28;20441;-78
2021/07/01 11:03:29;;;;;;;8.80;7.90;;;14.80;99.90;;;;;;5074302;28;20446;-78
2021/07/01 11:05:57;;;;;;;11.53;7.63;;;14.80;99.90;;;;;;5074786;28;20504;-78
2021/07/01 11:08:25;;;;;;;8.43;7.50;;;14.80;99.90;;;;;;5058048;28;20564;-78
2021/07/01 11:10:52;;;;;;;8.93;8.17;;;14.70;99.90;;;;;;5058566;28;20476;-78
2021/07/01 11:13:19;;;;;;;8.00;7.20;;;14.70;99.90;;;;;;5058321;28;20445;-78
2021/07/01 11:16:08;;;;;;;8.00;7.23;;;14.70;99.90;;;;;;5058336;28;20501;-78
2021/07/01 11:18:38;;;;;;;9.57;8.57;;;14.70;99.90;;;;;;5058300;28;20465;-78
2021/07/01 11:21:13;;;;;;;9.47;8.57;;;14.80;99.90;;;;;;5063098;28;20441;-77
2021/07/01 11:23:41;;;;;;;11.37;10.17;;;14.80;99.90;;;;;;5058935;28;20508;-77
2021/07/01 11:26:26;;;;;;;11.50;7.90;;;14.80;99.90;;;;;;5055635;28;20523;-77
2021/07/01 11:28:54;;;;;;;10.23;8.60;;;14.90;99.90;;;;;;5057218;28;20426;-77
2021/07/01 11:31:37;;;;;;;10.93;9.70;;;14.90;99.90;;;;;;5055752;28;20468;-77
2021/07/01 11:34:04;;;;;;;11.17;9.90;;;14.90;99.90;;;;;;5054051;28;20924;-77
2021/07/01 11:36:31;;;;;;;11.50;9.70;;;14.90;99.90;;;;;;5058303;28;20812;-78
2021/07/01 11:39:10;;;;;;;11.10;9.90;;;14.90;99.90;;;;;;5059253;28;20881;-78
2021/07/01 11:41:37;;;;;;;10.27;9.27;;;15.10;99.90;;;;;;5056885;28;20818;-78
2021/07/01 11:44:05;;;;;;;11.20;10.10;;;14.90;99.90;;;;;;5057292;28;20449;-78
2021/07/01 11:46:33;;;;;;;10.97;9.90;;;14.90;99.90;;;;;;5056419;28;20505;-78
2021/07/01 11:49:03;;;;;;;10.60;8.67;;;14.90;99.90;;;;;;5056956;28;20444;-78
2021/07/01 11:51:31;;;;;;;12.10;10.90;;;14.90;99.90;;;;;;5056341;28;20959;-77
2021/07/01 11:53:58;;;;;;;13.33;10.67;;;15.00;99.90;;;;;;5056791;28;20915;-78
2021/07/01 11:56:25;;;;;;;11.13;10.03;;;15.10;99.90;;;;;;5056013;28;20473;-78
2021/07/01 11:58:52;;;;;;;10.10;9.13;;;15.00;99.90;;;;;;5057487;28;20507;-78
2021/07/01 12:01:19;;;;;;;11.40;10.30;;;15.00;99.90;;;;;;5059398;28;20472;-77
2021/07/01 12:03:49;;;;;;;13.33;9.30;;;15.00;99.90;;;;;;5056785;28;20869;-77
2021/07/01 12:06:30;;;;;;;11.40;10.20;;;15.00;99.90;;;;;;5055150;28;21002;-78
2021/07/01 12:08:57;;;;;;;12.30;10.10;;;15.80;99.90;;;;;;5055761;28;20509;-78
2021/07/01 12:11:23;;;;;;;11.57;9.97;;;15.10;99.90;;;;;;5055393;28;20928;-76
2021/07/01 12:13:50;;;;;;;13.97;10.30;;;15.10;99.90;;;;;;5054285;28;20496;-77
2021/07/01 12:16:19;;;;;;;11.27;10.07;;;15.10;99.90;;;;;;5055673;28;20465;-79
2021/07/01 12:19:05;;;;;;;12.97;9.57;;;15.10;99.90;;;;;;5057398;28;20489;-78
2021/07/01 12:21:32;;;;;;;11.93;10.60;;;15.10;99.90;;;;;;5056491;28;20428;-79
2021/07/01 12:24:03;;;;;;;12.70;10.80;;;15.20;99.90;;;;;;5054831;28;20445;-78
2021/07/01 12:26:35;;;;;;;11.50;10.30;;;15.20;99.90;;;;;;5055895;28;20466;-78
2021/07/01 12:29:04;;;;;;;12.97;10.30;;;15.20;99.90;;;;;;5053811;28;20429;-77
2021/07/01 12:31:32;;;;;;;10.10;9.00;;;15.20;99.90;;;;;;5057695;28;20468;-78
2021/07/01 12:34:03;;;;;;;12.43;10.50;;;15.20;99.90;;;;;;5058451;28;20481;-78
2021/07/01 12:36:32;;;;;;;10.67;9.57;;;15.20;99.90;;;;;;5054935;28;20470;-78
2021/07/01 12:39:24;;;;;;;11.47;10.07;;;15.20;99.90;;;;;;5064332;28;20477;-78
2021/07/01 12:41:56;;;;;;;12.97;10.50;;;15.20;99.90;;;;;;5061208;28;20421;-77
2021/07/01 12:44:31;;;;;;;13.90;11.50;;;15.30;99.90;;;;;;5067653;28;20463;-79
2021/07/01 12:47:12;;;;;;;14.27;12.73;;;15.30;99.90;;;;;;5055086;28;20508;-77